sensor_id;sensor_type;location;lat;lon;timestamp;P1;durP1;ratioP1;P2;durP2;ratioP2
78877;SDS011;68257;43.514;1.498;2024-03-22T00:00:29;13.17;;;6.47;;
78877;SDS011;68257;43.514;1.498;2024-03-22T00:02:55;13.07;;;6.73;;
78877;SDS011;68257;43.514;1.498;2024-03-22T00:05:20;16.07;;;6.30;;
78877;SDS011;68257;43.514;1.498;2024-03-22T00:07:47;14.75;;;6.90;;
78877;SDS011;68257;43.514;1.498;2024-03-22T00:10:13;13.45;;;6.65;;
78877;SDS011;68257;43.514;1.498;2024-03-22T00:12:39;15.03;;;6.80;;
78877;SDS011;68257;43.514;1.498;2024-03-22T00:15:04;15.30;;;7.13;;
78877;SDS011;68257;43.514;1.498;2024-03-22T00:17:30;15.57;;;7.00;;
78877;SDS011;68257;43.514;1.498;2024-03-22T00:19:56;13.60;;;6.77;;
78877;SDS011;68257;43.514;1.498;2024-03-22T00:22:22;16.40;;;6.55;;
78877;SDS011;68257;43.514;1.498;2024-03-22T00:24:47;17.17;;;6.77;;
78877;SDS011;68257;43.514;1.498;2024-03-22T00:27:12;14.47;;;7.10;;
78877;SDS011;68257;43.514;1.498;2024-03-22T00:29:38;14.73;;;7.67;;
78877;SDS011;68257;43.514;1.498;2024-03-22T00:32:04;18.00;;;8.40;;
78877;SDS011;68257;43.514;1.498;2024-03-22T00:34:29;14.48;;;7.50;;
78877;SDS011;68257;43.514;1.498;2024-03-22T00:36:55;12.68;;;6.78;;
78877;SDS011;68257;43.514;1.498;2024-03-22T00:39:21;13.57;;;6.13;;
78877;SDS011;68257;43.514;1.498;2024-03-22T00:41:46;9.93;;;6.50;;
78877;SDS011;68257;43.514;1.498;2024-03-22T00:44:11;14.00;;;6.90;;
78877;SDS011;68257;43.514;1.498;2024-03-22T00:46:37;14.38;;;6.65;;
78877;SDS011;68257;43.514;1.498;2024-03-22T00:49:02;15.80;;;6.77;;
78877;SDS011;68257;43.514;1.498;2024-03-22T00:51:28;13.83;;;6.17;;
78877;SDS011;68257;43.514;1.498;2024-03-22T00:53:53;13.40;;;6.10;;
78877;SDS011;68257;43.514;1.498;2024-03-22T00:56:19;11.57;;;6.43;;
78877;SDS011;68257;43.514;1.498;2024-03-22T00:58:44;14.50;;;6.60;;
78877;SDS011;68257;43.514;1.498;2024-03-22T01:01:09;15.33;;;6.97;;
78877;SDS011;68257;43.514;1.498;2024-03-22T01:03:35;13.70;;;7.13;;
78877;SDS011;68257;43.514;1.498;2024-03-22T01:06:01;16.75;;;7.10;;
78877;SDS011;68257;43.514;1.498;2024-03-22T01:08:27;13.77;;;7.32;;
78877;SDS011;68257;43.514;1.498;2024-03-22T01:10:52;15.00;;;7.32;;
78877;SDS011;68257;43.514;1.498;2024-03-22T01:13:18;13.32;;;7.75;;
78877;SDS011;68257;43.514;1.498;2024-03-22T01:15:43;18.57;;;7.67;;
78877;SDS011;68257;43.514;1.498;2024-03-22T01:18:11;12.50;;;6.28;;
78877;SDS011;68257;43.514;1.498;2024-03-22T01:20:36;16.63;;;6.77;;
78877;SDS011;68257;43.514;1.498;2024-03-22T01:23:02;11.47;;;6.17;;
78877;SDS011;68257;43.514;1.498;2024-03-22T01:25:27;12.97;;;6.53;;
78877;SDS011;68257;43.514;1.498;2024-03-22T01:27:53;14.18;;;7.32;;
78877;SDS011;68257;43.514;1.498;2024-03-22T01:30:18;11.47;;;6.20;;
78877;SDS011;68257;43.514;1.498;2024-03-22T01:32:44;12.10;;;6.80;;
78877;SDS011;68257;43.514;1.498;2024-03-22T01:35:09;12.20;;;6.05;;
78877;SDS011;68257;43.514;1.498;2024-03-22T01:37:34;12.82;;;6.57;;
78877;SDS011;68257;43.514;1.498;2024-03-22T01:40:00;16.40;;;7.07;;
78877;SDS011;68257;43.514;1.498;2024-03-22T01:42:25;12.43;;;6.23;;
78877;SDS011;68257;43.514;1.498;2024-03-22T01:44:51;13.05;;;6.10;;
78877;SDS011;68257;43.514;1.498;2024-03-22T01:47:16;15.75;;;6.93;;
78877;SDS011;68257;43.514;1.498;2024-03-22T01:49:42;13.43;;;6.87;;
78877;SDS011;68257;43.514;1.498;2024-03-22T01:52:08;13.63;;;6.50;;
78877;SDS011;68257;43.514;1.498;2024-03-22T01:54:34;12.07;;;5.73;;
78877;SDS011;68257;43.514;1.498;2024-03-22T01:56:59;11.52;;;6.13;;
78877;SDS011;68257;43.514;1.498;2024-03-22T01:59:25;14.83;;;6.37;;
78877;SDS011;68257;43.514;1.498;2024-03-22T02:01:51;12.40;;;6.22;;
78877;SDS011;68257;43.514;1.498;2024-03-22T02:04:16;11.43;;;6.47;;
78877;SDS011;68257;43.514;1.498;2024-03-22T02:06:42;15.03;;;6.67;;
78877;SDS011;68257;43.514;1.498;2024-03-22T02:09:07;11.63;;;6.10;;
78877;SDS011;68257;43.514;1.498;2024-03-22T02:11:34;14.88;;;6.35;;
78877;SDS011;68257;43.514;1.498;2024-03-22T02:14:01;16.05;;;6.13;;
78877;SDS011;68257;43.514;1.498;2024-03-22T02:16:26;11.27;;;5.97;;
78877;SDS011;68257;43.514;1.498;2024-03-22T02:18:52;15.13;;;6.40;;
78877;SDS011;68257;43.514;1.498;2024-03-22T02:21:17;13.63;;;6.43;;
78877;SDS011;68257;43.514;1.498;2024-03-22T02:23:43;11.70;;;5.80;;
78877;SDS011;68257;43.514;1.498;2024-03-22T02:26:08;13.30;;;6.10;;
78877;SDS011;68257;43.514;1.498;2024-03-22T02:28:34;13.07;;;5.87;;
78877;SDS011;68257;43.514;1.498;2024-03-22T02:31:01;11.77;;;6.32;;
78877;SDS011;68257;43.514;1.498;2024-03-22T02:33:29;14.02;;;5.90;;
78877;SDS011;68257;43.514;1.498;2024-03-22T02:35:55;12.17;;;5.97;;
78877;SDS011;68257;43.514;1.498;2024-03-22T02:38:21;14.63;;;5.68;;
78877;SDS011;68257;43.514;1.498;2024-03-22T02:40:47;10.80;;;5.83;;
78877;SDS011;68257;43.514;1.498;2024-03-22T02:43:14;13.02;;;6.05;;
78877;SDS011;68257;43.514;1.498;2024-03-22T02:45:39;12.10;;;6.13;;
78877;SDS011;68257;43.514;1.498;2024-03-22T02:48:05;12.15;;;6.07;;
78877;SDS011;68257;43.514;1.498;2024-03-22T02:50:34;11.77;;;6.10;;
78877;SDS011;68257;43.514;1.498;2024-03-22T02:53:00;15.13;;;6.13;;
78877;SDS011;68257;43.514;1.498;2024-03-22T02:55:26;16.47;;;6.40;;
78877;SDS011;68257;43.514;1.498;2024-03-22T02:57:51;11.30;;;6.50;;
78877;SDS011;68257;43.514;1.498;2024-03-22T03:00:17;14.40;;;6.33;;
78877;SDS011;68257;43.514;1.498;2024-03-22T03:02:43;13.93;;;6.80;;
78877;SDS011;68257;43.514;1.498;2024-03-22T03:05:08;12.10;;;6.50;;
78877;SDS011;68257;43.514;1.498;2024-03-22T03:07:35;14.50;;;6.60;;
78877;SDS011;68257;43.514;1.498;2024-03-22T03:10:00;13.15;;;6.88;;
78877;SDS011;68257;43.514;1.498;2024-03-22T03:12:26;12.97;;;6.13;;
78877;SDS011;68257;43.514;1.498;2024-03-22T03:14:51;12.90;;;6.20;;
78877;SDS011;68257;43.514;1.498;2024-03-22T03:17:16;11.27;;;6.73;;
78877;SDS011;68257;43.514;1.498;2024-03-22T03:19:42;12.50;;;6.20;;
78877;SDS011;68257;43.514;1.498;2024-03-22T03:22:07;10.53;;;5.90;;
78877;SDS011;68257;43.514;1.498;2024-03-22T03:24:33;12.73;;;6.20;;
78877;SDS011;68257;43.514;1.498;2024-03-22T03:26:58;14.80;;;6.43;;
78877;SDS011;68257;43.514;1.498;2024-03-22T03:29:23;14.00;;;5.97;;
78877;SDS011;68257;43.514;1.498;2024-03-22T03:31:49;12.50;;;6.53;;
78877;SDS011;68257;43.514;1.498;2024-03-22T03:34:14;13.23;;;6.43;;
78877;SDS011;68257;43.514;1.498;2024-03-22T03:36:40;13.18;;;7.03;;
78877;SDS011;68257;43.514;1.498;2024-03-22T03:39:06;14.77;;;7.10;;
78877;SDS011;68257;43.514;1.498;2024-03-22T03:41:31;14.90;;;7.47;;
78877;SDS011;68257;43.514;1.498;2024-03-22T03:43:57;12.80;;;7.33;;
78877;SDS011;68257;43.514;1.498;2024-03-22T03:46:22;13.37;;;7.77;;
78877;SDS011;68257;43.514;1.498;2024-03-22T03:48:48;14.85;;;7.70;;
78877;SDS011;68257;43.514;1.498;2024-03-22T03:51:13;14.00;;;7.60;;
78877;SDS011;68257;43.514;1.498;2024-03-22T03:53:38;15.75;;;7.85;;
78877;SDS011;68257;43.514;1.498;2024-03-22T03:56:04;18.42;;;9.32;;
78877;SDS011;68257;43.514;1.498;2024-03-22T03:58:29;12.97;;;7.57;;
78877;SDS011;68257;43.514;1.498;2024-03-22T04:00:55;13.43;;;7.10;;
78877;SDS011;68257;43.514;1.498;2024-03-22T04:03:20;16.20;;;6.70;;
78877;SDS011;68257;43.514;1.498;2024-03-22T04:05:45;14.57;;;7.30;;
78877;SDS011;68257;43.514;1.498;2024-03-22T04:08:11;11.45;;;6.72;;
78877;SDS011;68257;43.514;1.498;2024-03-22T04:10:36;11.33;;;5.70;;
78877;SDS011;68257;43.514;1.498;2024-03-22T04:13:02;12.23;;;5.70;;
78877;SDS011;68257;43.514;1.498;2024-03-22T04:15:27;13.00;;;6.40;;
78877;SDS011;68257;43.514;1.498;2024-03-22T04:17:54;12.45;;;6.05;;
78877;SDS011;68257;43.514;1.498;2024-03-22T04:20:21;12.80;;;5.87;;
78877;SDS011;68257;43.514;1.498;2024-03-22T04:22:46;11.60;;;5.80;;
78877;SDS011;68257;43.514;1.498;2024-03-22T04:25:14;9.43;;;5.93;;
78877;SDS011;68257;43.514;1.498;2024-03-22T04:27:40;10.68;;;6.20;;
78877;SDS011;68257;43.514;1.498;2024-03-22T04:30:05;13.50;;;5.70;;
78877;SDS011;68257;43.514;1.498;2024-03-22T04:32:31;11.52;;;5.78;;
78877;SDS011;68257;43.514;1.498;2024-03-22T04:34:56;17.40;;;6.33;;
78877;SDS011;68257;43.514;1.498;2024-03-22T04:37:22;14.37;;;7.00;;
78877;SDS011;68257;43.514;1.498;2024-03-22T04:39:48;13.32;;;6.97;;
78877;SDS011;68257;43.514;1.498;2024-03-22T04:42:14;12.93;;;6.97;;
78877;SDS011;68257;43.514;1.498;2024-03-22T04:44:40;12.80;;;6.95;;
78877;SDS011;68257;43.514;1.498;2024-03-22T04:47:06;15.40;;;7.07;;
78877;SDS011;68257;43.514;1.498;2024-03-22T04:49:32;16.27;;;7.30;;
78877;SDS011;68257;43.514;1.498;2024-03-22T04:51:57;14.40;;;6.83;;
78877;SDS011;68257;43.514;1.498;2024-03-22T04:54:22;12.77;;;6.17;;
78877;SDS011;68257;43.514;1.498;2024-03-22T04:56:48;12.10;;;6.60;;
78877;SDS011;68257;43.514;1.498;2024-03-22T04:59:13;15.20;;;6.70;;
78877;SDS011;68257;43.514;1.498;2024-03-22T05:01:39;14.38;;;6.60;;
78877;SDS011;68257;43.514;1.498;2024-03-22T05:04:04;12.02;;;6.45;;
78877;SDS011;68257;43.514;1.498;2024-03-22T05:06:29;15.47;;;6.83;;
78877;SDS011;68257;43.514;1.498;2024-03-22T05:08:55;11.90;;;6.63;;
78877;SDS011;68257;43.514;1.498;2024-03-22T05:11:20;18.33;;;6.77;;
78877;SDS011;68257;43.514;1.498;2024-03-22T05:13:46;14.25;;;6.68;;
78877;SDS011;68257;43.514;1.498;2024-03-22T05:16:11;13.17;;;6.87;;
78877;SDS011;68257;43.514;1.498;2024-03-22T05:18:37;12.30;;;6.88;;
78877;SDS011;68257;43.514;1.498;2024-03-22T05:21:03;12.98;;;6.75;;
78877;SDS011;68257;43.514;1.498;2024-03-22T05:23:28;16.27;;;6.57;;
78877;SDS011;68257;43.514;1.498;2024-03-22T05:25:54;14.00;;;6.40;;
78877;SDS011;68257;43.514;1.498;2024-03-22T05:28:19;15.30;;;6.22;;
78877;SDS011;68257;43.514;1.498;2024-03-22T05:30:44;12.57;;;6.22;;
78877;SDS011;68257;43.514;1.498;2024-03-22T05:33:10;15.70;;;7.27;;
78877;SDS011;68257;43.514;1.498;2024-03-22T05:35:36;13.57;;;6.20;;
78877;SDS011;68257;43.514;1.498;2024-03-22T05:38:01;15.10;;;5.85;;
78877;SDS011;68257;43.514;1.498;2024-03-22T05:40:27;13.57;;;6.20;;
78877;SDS011;68257;43.514;1.498;2024-03-22T05:42:52;14.50;;;6.17;;
78877;SDS011;68257;43.514;1.498;2024-03-22T05:45:17;14.13;;;6.83;;
78877;SDS011;68257;43.514;1.498;2024-03-22T05:47:43;12.07;;;6.67;;
78877;SDS011;68257;43.514;1.498;2024-03-22T05:50:08;12.93;;;6.43;;
78877;SDS011;68257;43.514;1.498;2024-03-22T05:52:34;11.50;;;5.73;;
78877;SDS011;68257;43.514;1.498;2024-03-22T05:55:00;11.57;;;6.55;;
78877;SDS011;68257;43.514;1.498;2024-03-22T05:57:25;16.15;;;6.65;;
78877;SDS011;68257;43.514;1.498;2024-03-22T05:59:51;15.43;;;6.90;;
78877;SDS011;68257;43.514;1.498;2024-03-22T06:02:18;17.23;;;7.23;;
78877;SDS011;68257;43.514;1.498;2024-03-22T06:04:43;12.60;;;7.05;;
78877;SDS011;68257;43.514;1.498;2024-03-22T06:07:09;14.30;;;7.17;;
78877;SDS011;68257;43.514;1.498;2024-03-22T06:09:35;16.70;;;7.23;;
78877;SDS011;68257;43.514;1.498;2024-03-22T06:12:10;13.50;;;6.82;;
78877;SDS011;68257;43.514;1.498;2024-03-22T06:14:36;21.63;;;8.02;;
78877;SDS011;68257;43.514;1.498;2024-03-22T06:17:03;20.48;;;9.00;;
78877;SDS011;68257;43.514;1.498;2024-03-22T06:19:28;18.47;;;8.77;;
78877;SDS011;68257;43.514;1.498;2024-03-22T06:21:54;18.15;;;8.73;;
78877;SDS011;68257;43.514;1.498;2024-03-22T06:24:19;17.93;;;8.80;;
78877;SDS011;68257;43.514;1.498;2024-03-22T06:26:44;12.27;;;6.97;;
78877;SDS011;68257;43.514;1.498;2024-03-22T06:29:10;19.07;;;7.63;;
78877;SDS011;68257;43.514;1.498;2024-03-22T06:31:35;18.40;;;7.40;;
78877;SDS011;68257;43.514;1.498;2024-03-22T06:34:01;20.67;;;9.13;;
78877;SDS011;68257;43.514;1.498;2024-03-22T06:36:30;17.20;;;8.30;;
78877;SDS011;68257;43.514;1.498;2024-03-22T06:38:57;17.60;;;7.95;;
78877;SDS011;68257;43.514;1.498;2024-03-22T06:41:24;15.20;;;7.75;;
78877;SDS011;68257;43.514;1.498;2024-03-22T06:43:49;16.73;;;8.50;;
78877;SDS011;68257;43.514;1.498;2024-03-22T06:46:15;15.32;;;8.48;;
78877;SDS011;68257;43.514;1.498;2024-03-22T06:48:40;14.87;;;8.30;;
78877;SDS011;68257;43.514;1.498;2024-03-22T06:51:06;14.50;;;8.17;;
78877;SDS011;68257;43.514;1.498;2024-03-22T06:53:31;20.33;;;9.00;;
78877;SDS011;68257;43.514;1.498;2024-03-22T06:55:56;17.63;;;8.50;;
78877;SDS011;68257;43.514;1.498;2024-03-22T06:58:22;19.52;;;9.18;;
78877;SDS011;68257;43.514;1.498;2024-03-22T07:00:47;19.90;;;9.50;;
78877;SDS011;68257;43.514;1.498;2024-03-22T07:03:12;18.17;;;8.97;;
78877;SDS011;68257;43.514;1.498;2024-03-22T07:05:39;20.50;;;9.10;;
78877;SDS011;68257;43.514;1.498;2024-03-22T07:08:04;16.20;;;9.17;;
78877;SDS011;68257;43.514;1.498;2024-03-22T07:10:30;15.80;;;8.50;;
78877;SDS011;68257;43.514;1.498;2024-03-22T07:12:56;18.42;;;9.25;;
78877;SDS011;68257;43.514;1.498;2024-03-22T07:15:25;18.13;;;8.73;;
78877;SDS011;68257;43.514;1.498;2024-03-22T07:17:51;16.83;;;8.57;;
78877;SDS011;68257;43.514;1.498;2024-03-22T07:20:16;19.00;;;9.85;;
78877;SDS011;68257;43.514;1.498;2024-03-22T07:22:42;22.08;;;9.65;;
78877;SDS011;68257;43.514;1.498;2024-03-22T07:25:08;25.30;;;9.83;;
78877;SDS011;68257;43.514;1.498;2024-03-22T07:27:36;18.80;;;9.88;;
78877;SDS011;68257;43.514;1.498;2024-03-22T07:30:02;18.57;;;9.47;;
78877;SDS011;68257;43.514;1.498;2024-03-22T07:32:28;18.38;;;9.20;;
78877;SDS011;68257;43.514;1.498;2024-03-22T07:34:54;17.65;;;9.40;;
78877;SDS011;68257;43.514;1.498;2024-03-22T07:37:20;15.83;;;9.50;;
78877;SDS011;68257;43.514;1.498;2024-03-22T07:39:45;16.17;;;9.63;;
78877;SDS011;68257;43.514;1.498;2024-03-22T07:42:11;18.60;;;9.07;;
78877;SDS011;68257;43.514;1.498;2024-03-22T07:44:36;20.57;;;9.20;;
78877;SDS011;68257;43.514;1.498;2024-03-22T07:47:01;15.40;;;9.13;;
78877;SDS011;68257;43.514;1.498;2024-03-22T07:49:27;24.48;;;10.50;;
78877;SDS011;68257;43.514;1.498;2024-03-22T07:51:52;21.37;;;9.30;;
78877;SDS011;68257;43.514;1.498;2024-03-22T07:54:18;18.42;;;10.18;;
78877;SDS011;68257;43.514;1.498;2024-03-22T07:56:45;21.30;;;9.57;;
78877;SDS011;68257;43.514;1.498;2024-03-22T07:59:10;18.33;;;9.77;;
78877;SDS011;68257;43.514;1.498;2024-03-22T08:01:36;15.13;;;9.07;;
78877;SDS011;68257;43.514;1.498;2024-03-22T08:04:01;18.37;;;9.20;;
78877;SDS011;68257;43.514;1.498;2024-03-22T08:06:27;16.43;;;9.23;;
78877;SDS011;68257;43.514;1.498;2024-03-22T08:08:52;20.55;;;9.38;;
78877;SDS011;68257;43.514;1.498;2024-03-22T08:11:18;18.85;;;10.65;;
78877;SDS011;68257;43.514;1.498;2024-03-22T08:13:43;15.60;;;9.47;;
78877;SDS011;68257;43.514;1.498;2024-03-22T08:16:08;17.03;;;9.47;;
78877;SDS011;68257;43.514;1.498;2024-03-22T08:18:34;16.57;;;8.90;;
78877;SDS011;68257;43.514;1.498;2024-03-22T08:20:59;16.88;;;8.30;;
78877;SDS011;68257;43.514;1.498;2024-03-22T08:23:25;16.75;;;9.07;;
78877;SDS011;68257;43.514;1.498;2024-03-22T08:25:50;16.73;;;8.73;;
78877;SDS011;68257;43.514;1.498;2024-03-22T08:28:15;14.03;;;7.93;;
78877;SDS011;68257;43.514;1.498;2024-03-22T08:30:42;14.77;;;8.68;;
78877;SDS011;68257;43.514;1.498;2024-03-22T08:33:08;18.58;;;8.55;;
78877;SDS011;68257;43.514;1.498;2024-03-22T08:35:34;17.77;;;8.65;;
78877;SDS011;68257;43.514;1.498;2024-03-22T08:37:59;16.23;;;8.23;;
78877;SDS011;68257;43.514;1.498;2024-03-22T08:40:25;17.38;;;8.02;;
78877;SDS011;68257;43.514;1.498;2024-03-22T08:42:50;16.53;;;7.97;;
78877;SDS011;68257;43.514;1.498;2024-03-22T08:45:16;14.35;;;7.88;;
78877;SDS011;68257;43.514;1.498;2024-03-22T08:47:42;17.00;;;7.70;;
78877;SDS011;68257;43.514;1.498;2024-03-22T08:50:10;15.55;;;7.35;;
78877;SDS011;68257;43.514;1.498;2024-03-22T08:52:36;12.15;;;7.72;;
78877;SDS011;68257;43.514;1.498;2024-03-22T08:55:03;13.90;;;7.72;;
78877;SDS011;68257;43.514;1.498;2024-03-22T08:57:29;17.42;;;7.97;;
78877;SDS011;68257;43.514;1.498;2024-03-22T08:59:55;17.60;;;8.10;;
78877;SDS011;68257;43.514;1.498;2024-03-22T09:02:20;16.48;;;7.88;;
78877;SDS011;68257;43.514;1.498;2024-03-22T09:04:46;17.63;;;8.40;;
78877;SDS011;68257;43.514;1.498;2024-03-22T09:07:11;14.82;;;7.43;;
78877;SDS011;68257;43.514;1.498;2024-03-22T09:09:37;14.27;;;7.37;;
78877;SDS011;68257;43.514;1.498;2024-03-22T09:12:02;11.57;;;7.20;;
78877;SDS011;68257;43.514;1.498;2024-03-22T09:14:28;15.93;;;7.55;;
78877;SDS011;68257;43.514;1.498;2024-03-22T09:16:54;14.03;;;6.80;;
78877;SDS011;68257;43.514;1.498;2024-03-22T09:19:19;18.33;;;7.70;;
78877;SDS011;68257;43.514;1.498;2024-03-22T09:21:44;12.47;;;7.27;;
78877;SDS011;68257;43.514;1.498;2024-03-22T09:24:10;14.73;;;7.68;;
78877;SDS011;68257;43.514;1.498;2024-03-22T09:26:35;19.20;;;6.60;;
78877;SDS011;68257;43.514;1.498;2024-03-22T09:29:01;18.30;;;6.93;;
78877;SDS011;68257;43.514;1.498;2024-03-22T09:31:26;12.10;;;6.80;;
78877;SDS011;68257;43.514;1.498;2024-03-22T09:33:52;12.98;;;7.28;;
78877;SDS011;68257;43.514;1.498;2024-03-22T09:36:17;11.80;;;6.53;;
78877;SDS011;68257;43.514;1.498;2024-03-22T09:38:43;14.90;;;6.90;;
78877;SDS011;68257;43.514;1.498;2024-03-22T09:41:08;14.07;;;6.80;;
78877;SDS011;68257;43.514;1.498;2024-03-22T09:43:34;14.13;;;6.67;;
78877;SDS011;68257;43.514;1.498;2024-03-22T09:46:00;14.73;;;7.10;;
78877;SDS011;68257;43.514;1.498;2024-03-22T09:48:25;15.07;;;7.00;;
78877;SDS011;68257;43.514;1.498;2024-03-22T09:50:51;12.45;;;6.88;;
78877;SDS011;68257;43.514;1.498;2024-03-22T09:53:21;13.15;;;7.10;;
78877;SDS011;68257;43.514;1.498;2024-03-22T09:55:47;12.90;;;7.27;;
78877;SDS011;68257;43.514;1.498;2024-03-22T09:58:13;17.75;;;6.57;;
78877;SDS011;68257;43.514;1.498;2024-03-22T10:00:39;16.73;;;7.33;;
78877;SDS011;68257;43.514;1.498;2024-03-22T10:03:04;15.25;;;7.32;;
78877;SDS011;68257;43.514;1.498;2024-03-22T10:05:30;12.33;;;6.97;;
78877;SDS011;68257;43.514;1.498;2024-03-22T10:07:56;14.43;;;6.80;;
78877;SDS011;68257;43.514;1.498;2024-03-22T10:10:21;14.33;;;6.93;;
78877;SDS011;68257;43.514;1.498;2024-03-22T10:12:48;14.38;;;7.18;;
78877;SDS011;68257;43.514;1.498;2024-03-22T10:15:13;12.27;;;6.47;;
78877;SDS011;68257;43.514;1.498;2024-03-22T10:17:39;15.43;;;7.05;;
78877;SDS011;68257;43.514;1.498;2024-03-22T10:20:05;13.73;;;7.00;;
78877;SDS011;68257;43.514;1.498;2024-03-22T10:22:48;15.68;;;7.78;;
78877;SDS011;68257;43.514;1.498;2024-03-22T10:25:14;14.43;;;6.78;;
78877;SDS011;68257;43.514;1.498;2024-03-22T10:27:40;12.20;;;6.70;;
78877;SDS011;68257;43.514;1.498;2024-03-22T10:30:08;13.05;;;7.20;;
78877;SDS011;68257;43.514;1.498;2024-03-22T10:32:36;13.02;;;7.22;;
78877;SDS011;68257;43.514;1.498;2024-03-22T10:35:02;12.90;;;7.07;;
78877;SDS011;68257;43.514;1.498;2024-03-22T10:37:32;13.85;;;7.13;;
78877;SDS011;68257;43.514;1.498;2024-03-22T10:39:58;11.73;;;7.13;;
78877;SDS011;68257;43.514;1.498;2024-03-22T10:42:38;10.43;;;7.28;;
78877;SDS011;68257;43.514;1.498;2024-03-22T10:45:05;13.90;;;7.18;;
78877;SDS011;68257;43.514;1.498;2024-03-22T10:47:32;11.88;;;7.38;;
78877;SDS011;68257;43.514;1.498;2024-03-22T10:50:03;11.98;;;7.20;;
78877;SDS011;68257;43.514;1.498;2024-03-22T10:52:40;13.53;;;7.70;;
78877;SDS011;68257;43.514;1.498;2024-03-22T10:55:10;13.15;;;6.90;;
78877;SDS011;68257;43.514;1.498;2024-03-22T10:57:39;12.77;;;7.22;;
78877;SDS011;68257;43.514;1.498;2024-03-22T11:00:08;17.77;;;7.00;;
78877;SDS011;68257;43.514;1.498;2024-03-22T11:02:35;10.57;;;7.20;;
78877;SDS011;68257;43.514;1.498;2024-03-22T11:05:02;11.15;;;7.22;;
78877;SDS011;68257;43.514;1.498;2024-03-22T11:07:29;13.50;;;6.72;;
78877;SDS011;68257;43.514;1.498;2024-03-22T11:09:58;14.77;;;7.15;;
78877;SDS011;68257;43.514;1.498;2024-03-22T11:12:28;12.95;;;7.50;;
78877;SDS011;68257;43.514;1.498;2024-03-22T11:14:58;10.57;;;7.40;;
78877;SDS011;68257;43.514;1.498;2024-03-22T11:17:23;14.10;;;7.78;;
78877;SDS011;68257;43.514;1.498;2024-03-22T11:19:50;13.77;;;7.63;;
78877;SDS011;68257;43.514;1.498;2024-03-22T11:22:16;11.82;;;7.82;;
78877;SDS011;68257;43.514;1.498;2024-03-22T11:24:42;14.10;;;7.78;;
78877;SDS011;68257;43.514;1.498;2024-03-22T11:27:08;13.43;;;8.10;;
78877;SDS011;68257;43.514;1.498;2024-03-22T11:29:36;11.15;;;7.75;;
78877;SDS011;68257;43.514;1.498;2024-03-22T11:32:06;11.82;;;7.60;;
78877;SDS011;68257;43.514;1.498;2024-03-22T11:34:37;11.27;;;7.30;;
78877;SDS011;68257;43.514;1.498;2024-03-22T11:37:04;11.40;;;7.45;;
78877;SDS011;68257;43.514;1.498;2024-03-22T11:39:35;11.90;;;7.40;;
78877;SDS011;68257;43.514;1.498;2024-03-22T11:42:04;12.10;;;7.50;;
78877;SDS011;68257;43.514;1.498;2024-03-22T11:44:30;10.27;;;6.70;;
78877;SDS011;68257;43.514;1.498;2024-03-22T11:46:56;13.10;;;7.30;;
78877;SDS011;68257;43.514;1.498;2024-03-22T11:49:22;9.73;;;7.28;;
78877;SDS011;68257;43.514;1.498;2024-03-22T11:51:47;12.83;;;7.23;;
78877;SDS011;68257;43.514;1.498;2024-03-22T11:54:13;9.90;;;7.30;;
78877;SDS011;68257;43.514;1.498;2024-03-22T11:56:39;10.02;;;7.30;;
78877;SDS011;68257;43.514;1.498;2024-03-22T11:59:05;12.47;;;7.80;;
78877;SDS011;68257;43.514;1.498;2024-03-22T12:01:32;11.75;;;7.50;;
78877;SDS011;68257;43.514;1.498;2024-03-22T12:03:58;15.57;;;7.20;;
78877;SDS011;68257;43.514;1.498;2024-03-22T12:06:24;10.38;;;6.63;;
78877;SDS011;68257;43.514;1.498;2024-03-22T12:08:49;12.13;;;7.30;;
78877;SDS011;68257;43.514;1.498;2024-03-22T12:11:15;10.65;;;7.15;;
78877;SDS011;68257;43.514;1.498;2024-03-22T12:13:41;10.97;;;7.40;;
78877;SDS011;68257;43.514;1.498;2024-03-22T12:16:06;9.93;;;6.93;;
78877;SDS011;68257;43.514;1.498;2024-03-22T12:18:32;10.73;;;6.97;;
78877;SDS011;68257;43.514;1.498;2024-03-22T12:20:58;11.90;;;7.40;;
78877;SDS011;68257;43.514;1.498;2024-03-22T12:23:24;11.90;;;7.18;;
78877;SDS011;68257;43.514;1.498;2024-03-22T12:25:50;10.27;;;6.90;;
78877;SDS011;68257;43.514;1.498;2024-03-22T12:28:16;10.98;;;7.70;;
78877;SDS011;68257;43.514;1.498;2024-03-22T12:30:42;10.43;;;7.30;;
78877;SDS011;68257;43.514;1.498;2024-03-22T12:33:08;10.57;;;6.90;;
78877;SDS011;68257;43.514;1.498;2024-03-22T12:35:35;10.20;;;7.27;;
78877;SDS011;68257;43.514;1.498;2024-03-22T12:38:02;11.35;;;7.30;;
78877;SDS011;68257;43.514;1.498;2024-03-22T12:40:28;8.80;;;7.38;;
78877;SDS011;68257;43.514;1.498;2024-03-22T12:42:54;10.18;;;7.32;;
78877;SDS011;68257;43.514;1.498;2024-03-22T12:45:20;11.50;;;7.07;;
78877;SDS011;68257;43.514;1.498;2024-03-22T12:47:45;7.80;;;6.77;;
78877;SDS011;68257;43.514;1.498;2024-03-22T12:50:11;10.05;;;7.35;;
78877;SDS011;68257;43.514;1.498;2024-03-22T12:52:38;9.93;;;7.50;;
78877;SDS011;68257;43.514;1.498;2024-03-22T12:55:04;9.90;;;7.78;;
78877;SDS011;68257;43.514;1.498;2024-03-22T12:57:31;9.82;;;7.65;;
78877;SDS011;68257;43.514;1.498;2024-03-22T12:59:56;12.37;;;7.67;;
78877;SDS011;68257;43.514;1.498;2024-03-22T13:02:23;9.27;;;7.97;;
78877;SDS011;68257;43.514;1.498;2024-03-22T13:04:49;12.07;;;7.35;;
78877;SDS011;68257;43.514;1.498;2024-03-22T13:07:15;9.55;;;7.65;;
78877;SDS011;68257;43.514;1.498;2024-03-22T13:09:42;10.05;;;7.70;;
78877;SDS011;68257;43.514;1.498;2024-03-22T13:12:07;9.83;;;7.70;;
78877;SDS011;68257;43.514;1.498;2024-03-22T13:14:32;9.67;;;7.53;;
78877;SDS011;68257;43.514;1.498;2024-03-22T13:16:58;13.40;;;7.70;;
78877;SDS011;68257;43.514;1.498;2024-03-22T13:19:23;10.60;;;7.70;;
78877;SDS011;68257;43.514;1.498;2024-03-22T13:21:49;13.10;;;6.95;;
78877;SDS011;68257;43.514;1.498;2024-03-22T13:24:15;8.87;;;6.90;;
78877;SDS011;68257;43.514;1.498;2024-03-22T13:26:41;12.27;;;6.97;;
78877;SDS011;68257;43.514;1.498;2024-03-22T13:29:06;9.17;;;7.20;;
78877;SDS011;68257;43.514;1.498;2024-03-22T13:31:32;11.45;;;7.68;;
78877;SDS011;68257;43.514;1.498;2024-03-22T13:33:58;12.27;;;8.03;;
78877;SDS011;68257;43.514;1.498;2024-03-22T13:36:23;11.02;;;7.40;;
78877;SDS011;68257;43.514;1.498;2024-03-22T13:38:50;11.10;;;7.20;;
78877;SDS011;68257;43.514;1.498;2024-03-22T13:41:16;8.93;;;7.15;;
78877;SDS011;68257;43.514;1.498;2024-03-22T13:43:42;14.43;;;8.30;;
78877;SDS011;68257;43.514;1.498;2024-03-22T13:46:09;11.10;;;7.57;;
78877;SDS011;68257;43.514;1.498;2024-03-22T13:48:37;12.38;;;7.65;;
78877;SDS011;68257;43.514;1.498;2024-03-22T13:51:03;11.03;;;8.00;;
78877;SDS011;68257;43.514;1.498;2024-03-22T13:53:28;10.10;;;7.63;;
78877;SDS011;68257;43.514;1.498;2024-03-22T13:55:54;12.90;;;8.20;;
78877;SDS011;68257;43.514;1.498;2024-03-22T13:58:19;13.07;;;8.27;;
78877;SDS011;68257;43.514;1.498;2024-03-22T14:00:45;12.68;;;8.32;;
78877;SDS011;68257;43.514;1.498;2024-03-22T14:03:10;12.53;;;7.53;;
78877;SDS011;68257;43.514;1.498;2024-03-22T14:05:35;9.63;;;7.83;;
78877;SDS011;68257;43.514;1.498;2024-03-22T14:08:01;12.03;;;7.80;;
78877;SDS011;68257;43.514;1.498;2024-03-22T14:10:26;11.65;;;8.02;;
78877;SDS011;68257;43.514;1.498;2024-03-22T14:12:52;11.73;;;7.80;;
78877;SDS011;68257;43.514;1.498;2024-03-22T14:15:18;10.35;;;7.53;;
78877;SDS011;68257;43.514;1.498;2024-03-22T14:17:44;11.05;;;8.18;;
78877;SDS011;68257;43.514;1.498;2024-03-22T14:20:09;11.50;;;8.00;;
78877;SDS011;68257;43.514;1.498;2024-03-22T14:22:40;11.23;;;7.93;;
78877;SDS011;68257;43.514;1.498;2024-03-22T14:25:06;12.20;;;7.53;;
78877;SDS011;68257;43.514;1.498;2024-03-22T14:27:33;8.77;;;7.90;;